sensor_id;sensor_type;location;lat;lon;timestamp;temperature;humidity
17236;DHT22;8734;59.272;17.780;2023-02-18T00:01:21;4.70;99.90
17236;DHT22;8734;59.272;17.780;2023-02-18T00:03:50;4.60;99.90
17236;DHT22;8734;59.272;17.780;2023-02-18T00:06:23;4.60;99.90
17236;DHT22;8734;59.272;17.780;2023-02-18T00:08:52;4.60;99.90
17236;DHT22;8734;59.272;17.780;2023-02-18T00:11:21;4.60;99.90
17236;DHT22;8734;59.272;17.780;2023-02-18T00:13:50;4.60;99.90
17236;DHT22;8734;59.272;17.780;2023-02-18T00:16:19;4.60;99.90
17236;DHT22;8734;59.272;17.780;2023-02-18T00:18:48;4.60;99.90
17236;DHT22;8734;59.272;17.780;2023-02-18T00:21:16;4.60;99.90
17236;DHT22;8734;59.272;17.780;2023-02-18T00:23:46;4.60;99.90
17236;DHT22;8734;59.272;17.780;2023-02-18T00:26:15;4.60;99.90
17236;DHT22;8734;59.272;17.780;2023-02-18T00:28:44;4.60;99.90
17236;DHT22;8734;59.272;17.780;2023-02-18T00:31:16;4.60;99.90
17236;DHT22;8734;59.272;17.780;2023-02-18T00:33:45;4.60;99.90
17236;DHT22;8734;59.272;17.780;2023-02-18T00:36:16;4.60;99.90
17236;DHT22;8734;59.272;17.780;2023-02-18T00:38:48;4.50;99.90
17236;DHT22;8734;59.272;17.780;2023-02-18T00:41:16;4.50;99.90
17236;DHT22;8734;59.272;17.780;2023-02-18T00:43:46;4.50;99.90
17236;DHT22;8734;59.272;17.780;2023-02-18T00:46:14;4.40;99.90
17236;DHT22;8734;59.272;17.780;2023-02-18T00:48:43;4.40;99.90
17236;DHT22;8734;59.272;17.780;2023-02-18T00:51:11;4.40;99.90
17236;DHT22;8734;59.272;17.780;2023-02-18T00:53:40;4.30;99.90
17236;DHT22;8734;59.272;17.780;2023-02-18T00:56:10;4.30;99.90
17236;DHT22;8734;59.272;17.780;2023-02-18T00:58:39;4.20;99.90
17236;DHT22;8734;59.272;17.780;2023-02-18T01:01:08;4.20;99.90
17236;DHT22;8734;59.272;17.780;2023-02-18T01:03:39;4.20;99.90
17236;DHT22;8734;59.272;17.780;2023-02-18T01:06:09;4.10;99.90
17236;DHT22;8734;59.272;17.780;2023-02-18T01:08:38;4.00;99.90
17236;DHT22;8734;59.272;17.780;2023-02-18T01:11:07;4.00;99.90
17236;DHT22;8734;59.272;17.780;2023-02-18T01:13:39;3.90;99.90
17236;DHT22;8734;59.272;17.780;2023-02-18T01:16:08;3.90;99.90
17236;DHT22;8734;59.272;17.780;2023-02-18T01:18:38;3.80;99.90
17236;DHT22;8734;59.272;17.780;2023-02-18T01:21:08;3.80;99.90
17236;DHT22;8734;59.272;17.780;2023-02-18T01:23:37;3.70;99.90
17236;DHT22;8734;59.272;17.780;2023-02-18T01:26:07;3.60;99.90
17236;DHT22;8734;59.272;17.780;2023-02-18T01:28:37;3.60;99.90
17236;DHT22;8734;59.272;17.780;2023-02-18T01:31:08;3.50;99.90
17236;DHT22;8734;59.272;17.780;2023-02-18T01:33:37;3.40;99.90
17236;DHT22;8734;59.272;17.780;2023-02-18T01:36:07;3.30;99.90
17236;DHT22;8734;59.272;17.780;2023-02-18T01:38:36;3.20;99.90
17236;DHT22;8734;59.272;17.780;2023-02-18T01:41:04;3.10;99.90
17236;DHT22;8734;59.272;17.780;2023-02-18T01:43:33;3.00;99.90
17236;DHT22;8734;59.272;17.780;2023-02-18T01:46:19;3.00;99.90
17236;DHT22;8734;59.272;17.780;2023-02-18T01:48:51;2.90;99.90
17236;DHT22;8734;59.272;17.780;2023-02-18T01:51:23;2.90;99.90
17236;DHT22;8734;59.272;17.780;2023-02-18T01:53:56;2.90;99.90
17236;DHT22;8734;59.272;17.780;2023-02-18T01:56:29;2.80;99.90
17236;DHT22;8734;59.272;17.780;2023-02-18T01:59:02;2.80;99.90
17236;DHT22;8734;59.272;17.780;2023-02-18T02:01:34;2.70;99.90
17236;DHT22;8734;59.272;17.780;2023-02-18T02:04:03;2.50;99.90
17236;DHT22;8734;59.272;17.780;2023-02-18T02:06:31;2.30;99.90
17236;DHT22;8734;59.272;17.780;2023-02-18T02:09:03;2.20;99.90
17236;DHT22;8734;59.272;17.780;2023-02-18T02:11:40;2.20;99.90
17236;DHT22;8734;59.272;17.780;2023-02-18T02:14:18;2.10;99.90
17236;DHT22;8734;59.272;17.780;2023-02-18T02:16:56;2.00;99.90
17236;DHT22;8734;59.272;17.780;2023-02-18T02:22:53;1.80;99.90
17236;DHT22;8734;59.272;17.780;2023-02-18T02:25:43;1.70;99.90
17236;DHT22;8734;59.272;17.780;2023-02-18T02:34:30;1.80;99.90
17236;DHT22;8734;59.272;17.780;2023-02-18T02:37:08;1.90;99.90
17236;DHT22;8734;59.272;17.780;2023-02-18T02:39:46;1.90;99.90
17236;DHT22;8734;59.272;17.780;2023-02-18T02:42:25;2.00;99.90
17236;DHT22;8734;59.272;17.780;2023-02-18T02:45:03;2.10;99.90
17236;DHT22;8734;59.272;17.780;2023-02-18T02:47:37;2.20;99.90
17236;DHT22;8734;59.272;17.780;2023-02-18T02:50:12;2.20;99.90
17236;DHT22;8734;59.272;17.780;2023-02-18T02:52:48;2.30;99.90
17236;DHT22;8734;59.272;17.780;2023-02-18T02:55:18;2.30;99.90
17236;DHT22;8734;59.272;17.780;2023-02-18T02:57:49;2.30;99.90
17236;DHT22;8734;59.272;17.780;2023-02-18T03:00:20;2.30;99.90
17236;DHT22;8734;59.272;17.780;2023-02-18T03:03:09;2.30;99.90
17236;DHT22;8734;59.272;17.780;2023-02-18T03:05:53;2.30;99.90
17236;DHT22;8734;59.272;17.780;2023-02-18T03:08:35;2.30;99.90
17236;DHT22;8734;59.272;17.780;2023-02-18T03:11:08;2.40;99.90
17236;DHT22;8734;59.272;17.780;2023-02-18T03:13:56;2.50;99.90
17236;DHT22;8734;59.272;17.780;2023-02-18T03:16:27;2.40;99.90
17236;DHT22;8734;59.272;17.780;2023-02-18T03:19:06;2.40;99.90
17236;DHT22;8734;59.272;17.780;2023-02-18T03:21:41;2.50;99.90
17236;DHT22;8734;59.272;17.780;2023-02-18T03:24:15;2.50;99.90
17236;DHT22;8734;59.272;17.780;2023-02-18T03:26:47;2.50;99.90
17236;DHT22;8734;59.272;17.780;2023-02-18T03:29:18;2.50;99.90
17236;DHT22;8734;59.272;17.780;2023-02-18T03:31:51;2.50;99.90
17236;DHT22;8734;59.272;17.780;2023-02-18T03:34:25;2.40;99.90
17236;DHT22;8734;59.272;17.780;2023-02-18T03:36:57;2.40;99.90
17236;DHT22;8734;59.272;17.780;2023-02-18T03:39:29;2.40;99.90
17236;DHT22;8734;59.272;17.780;2023-02-18T03:41:57;2.30;99.90
17236;DHT22;8734;59.272;17.780;2023-02-18T03:44:26;2.20;99.90
17236;DHT22;8734;59.272;17.780;2023-02-18T03:46:54;2.20;99.90
17236;DHT22;8734;59.272;17.780;2023-02-18T03:49:23;2.20;99.90
17236;DHT22;8734;59.272;17.780;2023-02-18T03:51:51;2.10;99.90
17236;DHT22;8734;59.272;17.780;2023-02-18T03:54:21;2.10;99.90
17236;DHT22;8734;59.272;17.780;2023-02-18T03:56:49;2.10;99.90
17236;DHT22;8734;59.272;17.780;2023-02-18T03:59:17;2.00;99.90
17236;DHT22;8734;59.272;17.780;2023-02-18T04:01:46;2.00;99.90
17236;DHT22;8734;59.272;17.780;2023-02-18T04:04:14;2.00;99.90
17236;DHT22;8734;59.272;17.780;2023-02-18T04:06:42;2.00;99.90
17236;DHT22;8734;59.272;17.780;2023-02-18T04:09:11;2.00;99.90
17236;DHT22;8734;59.272;17.780;2023-02-18T04:11:41;2.10;99.90
17236;DHT22;8734;59.272;17.780;2023-02-18T04:14:09;2.00;99.90
17236;DHT22;8734;59.272;17.780;2023-02-18T04:16:41;2.00;99.90
17236;DHT22;8734;59.272;17.780;2023-02-18T04:19:09;2.10;99.90
17236;DHT22;8734;59.272;17.780;2023-02-18T04:21:37;2.10;99.90
17236;DHT22;8734;59.272;17.780;2023-02-18T04:24:06;2.10;99.90
17236;DHT22;8734;59.272;17.780;2023-02-18T04:26:34;2.10;99.90
17236;DHT22;8734;59.272;17.780;2023-02-18T04:29:04;2.20;99.90
17236;DHT22;8734;59.272;17.780;2023-02-18T04:31:33;2.20;99.90
17236;DHT22;8734;59.272;17.780;2023-02-18T04:34:02;2.20;99.90
17236;DHT22;8734;59.272;17.780;2023-02-18T04:36:30;2.20;99.90
17236;DHT22;8734;59.272;17.780;2023-02-18T04:38:58;2.20;99.90
17236;DHT22;8734;59.272;17.780;2023-02-18T04:41:27;2.20;99.90
17236;DHT22;8734;59.272;17.780;2023-02-18T04:43:55;2.20;99.90
17236;DHT22;8734;59.272;17.780;2023-02-18T04:46:26;2.20;99.90
17236;DHT22;8734;59.272;17.780;2023-02-18T04:48:55;2.20;99.90
17236;DHT22;8734;59.272;17.780;2023-02-18T04:51:23;2.20;99.90
17236;DHT22;8734;59.272;17.780;2023-02-18T04:53:52;2.20;99.90
17236;DHT22;8734;59.272;17.780;2023-02-18T04:56:20;2.20;99.90
17236;DHT22;8734;59.272;17.780;2023-02-18T04:58:48;2.20;99.90
17236;DHT22;8734;59.272;17.780;2023-02-18T05:01:17;2.20;99.90
17236;DHT22;8734;59.272;17.780;2023-02-18T05:03:47;2.20;99.90
17236;DHT22;8734;59.272;17.780;2023-02-18T05:06:15;2.20;99.90
17236;DHT22;8734;59.272;17.780;2023-02-18T05:08:44;2.30;99.90
17236;DHT22;8734;59.272;17.780;2023-02-18T05:11:12;2.30;99.90
17236;DHT22;8734;59.272;17.780;2023-02-18T05:13:41;2.30;99.90
17236;DHT22;8734;59.272;17.780;2023-02-18T05:16:09;2.30;99.90
17236;DHT22;8734;59.272;17.780;2023-02-18T05:18:38;2.30;99.90
17236;DHT22;8734;59.272;17.780;2023-02-18T05:21:08;2.30;99.90
17236;DHT22;8734;59.272;17.780;2023-02-18T05:23:37;2.30;99.90
17236;DHT22;8734;59.272;17.780;2023-02-18T05:26:06;2.40;99.90
17236;DHT22;8734;59.272;17.780;2023-02-18T05:28:34;2.40;99.90
17236;DHT22;8734;59.272;17.780;2023-02-18T05:31:03;2.30;99.90
17236;DHT22;8734;59.272;17.780;2023-02-18T05:33:32;2.30;99.90
17236;DHT22;8734;59.272;17.780;2023-02-18T05:36:00;2.30;99.90
17236;DHT22;8734;59.272;17.780;2023-02-18T05:38:30;2.30;99.90
17236;DHT22;8734;59.272;17.780;2023-02-18T05:40:59;2.30;99.90
17236;DHT22;8734;59.272;17.780;2023-02-18T05:43:27;2.20;99.90
17236;DHT22;8734;59.272;17.780;2023-02-18T05:45:55;2.20;99.90
17236;DHT22;8734;59.272;17.780;2023-02-18T05:48:24;2.20;99.90
17236;DHT22;8734;59.272;17.780;2023-02-18T05:50:53;2.20;99.90
17236;DHT22;8734;59.272;17.780;2023-02-18T05:53:22;2.30;99.90
17236;DHT22;8734;59.272;17.780;2023-02-18T05:55:51;2.30;99.90
17236;DHT22;8734;59.272;17.780;2023-02-18T05:58:20;2.30;99.90
17236;DHT22;8734;59.272;17.780;2023-02-18T06:00:48;2.20;99.90
17236;DHT22;8734;59.272;17.780;2023-02-18T06:03:16;2.20;99.90
17236;DHT22;8734;59.272;17.780;2023-02-18T06:05:48;2.10;99.90
17236;DHT22;8734;59.272;17.780;2023-02-18T06:08:17;2.20;99.90
17236;DHT22;8734;59.272;17.780;2023-02-18T06:10:46;2.20;99.90
17236;DHT22;8734;59.272;17.780;2023-02-18T06:13:16;2.20;99.90
17236;DHT22;8734;59.272;17.780;2023-02-18T06:15:44;2.20;99.90
17236;DHT22;8734;59.272;17.780;2023-02-18T06:18:13;2.20;99.90
17236;DHT22;8734;59.272;17.780;2023-02-18T06:20:41;2.30;99.90
17236;DHT22;8734;59.272;17.780;2023-02-18T06:23:10;2.30;99.90
17236;DHT22;8734;59.272;17.780;2023-02-18T06:25:38;2.30;99.90
17236;DHT22;8734;59.272;17.780;2023-02-18T06:28:06;2.40;99.90
17236;DHT22;8734;59.272;17.780;2023-02-18T06:30:36;2.40;99.90
17236;DHT22;8734;59.272;17.780;2023-02-18T06:33:05;2.30;99.90
17236;DHT22;8734;59.272;17.780;2023-02-18T06:35:34;2.40;99.90
17236;DHT22;8734;59.272;17.780;2023-02-18T06:38:03;2.40;99.90
17236;DHT22;8734;59.272;17.780;2023-02-18T06:40:31;2.40;99.90
17236;DHT22;8734;59.272;17.780;2023-02-18T06:42:59;2.40;99.90
17236;DHT22;8734;59.272;17.780;2023-02-18T06:45:28;2.40;99.90
17236;DHT22;8734;59.272;17.780;2023-02-18T06:47:58;2.40;99.90
17236;DHT22;8734;59.272;17.780;2023-02-18T06:50:26;2.40;99.90
17236;DHT22;8734;59.272;17.780;2023-02-18T06:52:55;2.40;99.90
17236;DHT22;8734;59.272;17.780;2023-02-18T06:55:23;2.40;99.90
17236;DHT22;8734;59.272;17.780;2023-02-18T06:57:51;2.40;99.90
17236;DHT22;8734;59.272;17.780;2023-02-18T07:00:20;2.50;99.90
17236;DHT22;8734;59.272;17.780;2023-02-18T07:02:49;2.40;99.90
17236;DHT22;8734;59.272;17.780;2023-02-18T07:05:18;2.40;99.90
17236;DHT22;8734;59.272;17.780;2023-02-18T07:07:47;2.50;99.90
17236;DHT22;8734;59.272;17.780;2023-02-18T07:10:15;2.40;99.90
17236;DHT22;8734;59.272;17.780;2023-02-18T07:12:44;2.50;99.90
17236;DHT22;8734;59.272;17.780;2023-02-18T07:15:13;2.50;99.90
17236;DHT22;8734;59.272;17.780;2023-02-18T07:17:41;2.50;99.90
17236;DHT22;8734;59.272;17.780;2023-02-18T07:20:10;2.40;99.90
17236;DHT22;8734;59.272;17.780;2023-02-18T07:22:40;2.40;99.90
17236;DHT22;8734;59.272;17.780;2023-02-18T07:25:08;2.40;99.90
17236;DHT22;8734;59.272;17.780;2023-02-18T07:27:37;2.40;99.90
17236;DHT22;8734;59.272;17.780;2023-02-18T07:30:06;2.40;99.90
17236;DHT22;8734;59.272;17.780;2023-02-18T07:32:34;2.40;99.90
17236;DHT22;8734;59.272;17.780;2023-02-18T07:35:03;2.40;99.90
17236;DHT22;8734;59.272;17.780;2023-02-18T07:37:33;2.40;99.90
17236;DHT22;8734;59.272;17.780;2023-02-18T07:40:02;2.40;99.90
17236;DHT22;8734;59.272;17.780;2023-02-18T07:42:31;2.40;99.90
17236;DHT22;8734;59.272;17.780;2023-02-18T07:44:59;2.40;99.90
17236;DHT22;8734;59.272;17.780;2023-02-18T07:47:28;2.40;99.90
17236;DHT22;8734;59.272;17.780;2023-02-18T07:49:56;2.40;99.90
17236;DHT22;8734;59.272;17.780;2023-02-18T07:52:25;2.40;99.90
17236;DHT22;8734;59.272;17.780;2023-02-18T07:54:54;2.40;99.90
17236;DHT22;8734;59.272;17.780;2023-02-18T07:57:23;2.40;99.90
17236;DHT22;8734;59.272;17.780;2023-02-18T07:59:51;2.40;99.90
17236;DHT22;8734;59.272;17.780;2023-02-18T08:02:22;2.40;99.90
17236;DHT22;8734;59.272;17.780;2023-02-18T08:04:51;2.50;99.90
17236;DHT22;8734;59.272;17.780;2023-02-18T08:07:21;2.50;99.90
17236;DHT22;8734;59.272;17.780;2023-02-18T08:09:49;2.50;99.90
17236;DHT22;8734;59.272;17.780;2023-02-18T08:12:18;2.60;99.90
17236;DHT22;8734;59.272;17.780;2023-02-18T08:14:48;2.60;99.90
17236;DHT22;8734;59.272;17.780;2023-02-18T08:17:17;2.60;99.90
17236;DHT22;8734;59.272;17.780;2023-02-18T08:19:45;2.70;99.90
17236;DHT22;8734;59.272;17.780;2023-02-18T08:22:14;2.70;99.90
17236;DHT22;8734;59.272;17.780;2023-02-18T08:24:42;2.70;99.90
17236;DHT22;8734;59.272;17.780;2023-02-18T08:27:10;2.70;99.90
17236;DHT22;8734;59.272;17.780;2023-02-18T08:29:39;2.80;99.90
17236;DHT22;8734;59.272;17.780;2023-02-18T08:32:09;2.80;99.90
17236;DHT22;8734;59.272;17.780;2023-02-18T08:34:37;2.90;99.90
17236;DHT22;8734;59.272;17.780;2023-02-18T08:37:06;2.90;99.90
17236;DHT22;8734;59.272;17.780;2023-02-18T08:39:35;3.00;99.90
17236;DHT22;8734;59.272;17.780;2023-02-18T08:42:05;3.00;99.90
17236;DHT22;8734;59.272;17.780;2023-02-18T08:44:34;3.00;99.90
17236;DHT22;8734;59.272;17.780;2023-02-18T08:47:03;3.00;99.90
17236;DHT22;8734;59.272;17.780;2023-02-18T08:49:53;3.10;99.90
17236;DHT22;8734;59.272;17.780;2023-02-18T08:52:21;3.10;99.90
17236;DHT22;8734;59.272;17.780;2023-02-18T08:54:50;3.10;99.90
17236;DHT22;8734;59.272;17.780;2023-02-18T08:57:18;3.10;99.90
17236;DHT22;8734;59.272;17.780;2023-02-18T08:59:46;3.20;99.90
17236;DHT22;8734;59.272;17.780;2023-02-18T09:02:15;3.20;99.90
17236;DHT22;8734;59.272;17.780;2023-02-18T09:04:43;3.20;99.90
17236;DHT22;8734;59.272;17.780;2023-02-18T09:07:13;3.20;99.90
17236;DHT22;8734;59.272;17.780;2023-02-18T09:09:41;3.20;99.90
17236;DHT22;8734;59.272;17.780;2023-02-18T09:12:09;3.30;99.90
17236;DHT22;8734;59.272;17.780;2023-02-18T09:14:38;3.30;99.90
17236;DHT22;8734;59.272;17.780;2023-02-18T09:17:07;3.40;99.90
17236;DHT22;8734;59.272;17.780;2023-02-18T09:19:35;3.40;99.90
17236;DHT22;8734;59.272;17.780;2023-02-18T09:22:04;3.40;99.90
17236;DHT22;8734;59.272;17.780;2023-02-18T09:24:37;3.40;99.90
17236;DHT22;8734;59.272;17.780;2023-02-18T09:27:06;3.50;99.90
17236;DHT22;8734;59.272;17.780;2023-02-18T09:29:38;3.50;99.90
17236;DHT22;8734;59.272;17.780;2023-02-18T09:32:07;3.50;99.90
17236;DHT22;8734;59.272;17.780;2023-02-18T09:34:41;3.50;99.90
17236;DHT22;8734;59.272;17.780;2023-02-18T09:37:10;3.50;99.90
17236;DHT22;8734;59.272;17.780;2023-02-18T09:39:39;3.50;99.90
17236;DHT22;8734;59.272;17.780;2023-02-18T09:42:12;3.60;99.90
17236;DHT22;8734;59.272;17.780;2023-02-18T09:44:43;3.60;99.90
17236;DHT22;8734;59.272;17.780;2023-02-18T09:47:16;3.60;99.90
17236;DHT22;8734;59.272;17.780;2023-02-18T09:49:48;3.60;99.90
17236;DHT22;8734;59.272;17.780;2023-02-18T09:52:21;3.60;99.90
17236;DHT22;8734;59.272;17.780;2023-02-18T09:54:52;3.60;99.90
17236;DHT22;8734;59.272;17.780;2023-02-18T09:57:24;3.60;99.90
17236;DHT22;8734;59.272;17.780;2023-02-18T09:59:57;3.60;99.90
17236;DHT22;8734;59.272;17.780;2023-02-18T10:02:27;3.60;99.90
17236;DHT22;8734;59.272;17.780;2023-02-18T10:04:56;3.60;99.90
17236;DHT22;8734;59.272;17.780;2023-02-18T10:07:27;3.60;99.90
17236;DHT22;8734;59.272;17.780;2023-02-18T10:10:02;3.60;99.90
17236;DHT22;8734;59.272;17.780;2023-02-18T10:12:35;3.60;99.90
17236;DHT22;8734;59.272;17.780;2023-02-18T10:15:09;3.60;99.90
17236;DHT22;8734;59.272;17.780;2023-02-18T10:17:44;3.60;99.90
17236;DHT22;8734;59.272;17.780;2023-02-18T10:20:16;3.70;99.90
17236;DHT22;8734;59.272;17.780;2023-02-18T10:22:47;3.70;99.90
17236;DHT22;8734;59.272;17.780;2023-02-18T10:25:20;3.70;99.90
17236;DHT22;8734;59.272;17.780;2023-02-18T10:27:51;3.80;99.90
17236;DHT22;8734;59.272;17.780;2023-02-18T10:30:22;3.80;99.90
17236;DHT22;8734;59.272;17.780;2023-02-18T10:32:55;3.90;99.90
17236;DHT22;8734;59.272;17.780;2023-02-18T10:35:27;4.00;99.90
17236;DHT22;8734;59.272;17.780;2023-02-18T10:38:05;4.20;99.90
17236;DHT22;8734;59.272;17.780;2023-02-18T10:40:45;4.50;99.90
17236;DHT22;8734;59.272;17.780;2023-02-18T10:43:24;4.50;99.90
17236;DHT22;8734;59.272;17.780;2023-02-18T10:46:00;4.60;99.90
17236;DHT22;8734;59.272;17.780;2023-02-18T10:48:55;4.60;99.90
17236;DHT22;8734;59.272;17.780;2023-02-18T10:51:30;4.60;99.90
17236;DHT22;8734;59.272;17.780;2023-02-18T10:53:59;4.70;99.90
17236;DHT22;8734;59.272;17.780;2023-02-18T10:56:38;4.90;99.90
17236;DHT22;8734;59.272;17.780;2023-02-18T10:59:12;4.90;99.90
17236;DHT22;8734;59.272;17.780;2023-02-18T11:01:41;4.80;99.90
17236;DHT22;8734;59.272;17.780;2023-02-18T11:04:13;4.70;99.90
17236;DHT22;8734;59.272;17.780;2023-02-18T11:06:44;4.60;99.90
17236;DHT22;8734;59.272;17.780;2023-02-18T11:09:27;4.50;99.90
17236;DHT22;8734;59.272;17.780;2023-02-18T11:12:09;4.50;99.90
17236;DHT22;8734;59.272;17.780;2023-02-18T11:14:42;4.40;99.90
17236;DHT22;8734;59.272;17.780;2023-02-18T11:17:20;4.40;99.90
17236;DHT22;8734;59.272;17.780;2023-02-18T11:19:55;4.40;99.90
17236;DHT22;8734;59.272;17.780;2023-02-18T11:22:28;4.40;99.90
17236;DHT22;8734;59.272;17.780;2023-02-18T11:24:59;4.40;99.90
17236;DHT22;8734;59.272;17.780;2023-02-18T11:27:31;4.40;99.90
17236;DHT22;8734;59.272;17.780;2023-02-18T11:30:16;4.50;99.90
17236;DHT22;8734;59.272;17.780;2023-02-18T11:32:48;4.50;99.90
17236;DHT22;8734;59.272;17.780;2023-02-18T11:35:20;4.50;99.90
17236;DHT22;8734;59.272;17.780;2023-02-18T11:37:49;4.50;99.90
17236;DHT22;8734;59.272;17.780;2023-02-18T11:40:22;4.60;99.90
17236;DHT22;8734;59.272;17.780;2023-02-18T11:43:02;4.70;99.90
17236;DHT22;8734;59.272;17.780;2023-02-18T11:45:33;4.80;99.90
17236;DHT22;8734;59.272;17.780;2023-02-18T11:48:07;4.90;99.90
17236;DHT22;8734;59.272;17.780;2023-02-18T11:50:36;5.00;99.90
17236;DHT22;8734;59.272;17.780;2023-02-18T11:53:26;5.10;99.90
17236;DHT22;8734;59.272;17.780;2023-02-18T11:55:56;5.10;99.90
17236;DHT22;8734;59.272;17.780;2023-02-18T11:58:29;5.10;99.90
17236;DHT22;8734;59.272;17.780;2023-02-18T12:01:02;5.10;99.90
17236;DHT22;8734;59.272;17.780;2023-02-18T12:03:37;5.20;99.90
17236;DHT22;8734;59.272;17.780;2023-02-18T12:06:13;5.10;99.90
17236;DHT22;8734;59.272;17.780;2023-02-18T12:08:47;5.10;99.90
17236;DHT22;8734;59.272;17.780;2023-02-18T12:11:28;5.20;99.90
17236;DHT22;8734;59.272;17.780;2023-02-18T12:14:00;5.20;99.90
17236;DHT22;8734;59.272;17.780;2023-02-18T12:16:33;5.30;99.90
17236;DHT22;8734;59.272;17.780;2023-02-18T12:19:23;5.20;99.90
17236;DHT22;8734;59.272;17.780;2023-02-18T12:21:59;5.30;99.90
17236;DHT22;8734;59.272;17.780;2023-02-18T12:24:42;5.40;99.90
17236;DHT22;8734;59.272;17.780;2023-02-18T12:27:20;5.40;99.90
17236;DHT22;8734;59.272;17.780;2023-02-18T12:30:02;5.40;99.90
17236;DHT22;8734;59.272;17.780;2023-02-18T12:32:41;5.30;99.90
17236;DHT22;8734;59.272;17.780;2023-02-18T12:35:36;5.30;99.90
17236;DHT22;8734;59.272;17.780;2023-02-18T12:38:27;5.30;99.90
17236;DHT22;8734;59.272;17.780;2023-02-18T12:41:09;5.20;99.90
17236;DHT22;8734;59.272;17.780;2023-02-18T12:43:47;5.20;99.90
17236;DHT22;8734;59.272;17.780;2023-02-18T12:46:35;5.20;99.90
17236;DHT22;8734;59.272;17.780;2023-02-18T12:49:24;5.20;99.90
17236;DHT22;8734;59.272;17.780;2023-02-18T12:52:03;5.30;99.90
17236;DHT22;8734;59.272;17.780;2023-02-18T12:54:42;5.30;99.90
17236;DHT22;8734;59.272;17.780;2023-02-18T12:57:30;5.30;99.90
17236;DHT22;8734;59.272;17.780;2023-02-18T13:00:22;5.20;99.90
17236;DHT22;8734;59.272;17.780;2023-02-18T13:03:17;5.20;99.90
17236;DHT22;8734;59.272;17.780;2023-02-18T13:05:56;5.20;99.90
17236;DHT22;8734;59.272;17.780;2023-02-18T13:08:38;5.20;99.90
17236;DHT22;8734;59.272;17.780;2023-02-18T13:11:21;5.20;99.90
17236;DHT22;8734;59.272;17.780;2023-02-18T13:13:59;5.20;99.90
17236;DHT22;8734;59.272;17.780;2023-02-18T13:16:30;5.10;99.90
17236;DHT22;8734;59.272;17.780;2023-02-18T13:19:06;5.20;99.90
17236;DHT22;8734;59.272;17.780;2023-02-18T13:21:38;5.20;99.90
17236;DHT22;8734;59.272;17.780;2023-02-18T13:24:10;5.10;99.90
17236;DHT22;8734;59.272;17.780;2023-02-18T13:26:41;4.90;99.90
17236;DHT22;8734;59.272;17.780;2023-02-18T13:29:19;4.90;99.90
17236;DHT22;8734;59.272;17.780;2023-02-18T13:31:59;4.90;99.90
17236;DHT22;8734;59.272;17.780;2023-02-18T13:34:34;4.90;99.90
17236;DHT22;8734;59.272;17.780;2023-02-18T13:37:09;4.90;99.90
17236;DHT22;8734;59.272;17.780;2023-02-18T13:39:46;5.00;99.90
17236;DHT22;8734;59.272;17.780;2023-02-18T13:42:33;5.00;99.90
17236;DHT22;8734;59.272;17.780;2023-02-18T13:45:23;5.00;99.90
17236;DHT22;8734;59.272;17.780;2023-02-18T13:47:53;5.00;99.90
17236;DHT22;8734;59.272;17.780;2023-02-18T13:50:29;5.00;99.90
17236;DHT22;8734;59.272;17.780;2023-02-18T13:53:12;5.00;99.90
17236;DHT22;8734;59.272;17.780;2023-02-18T13:55:47;5.00;99.90
17236;DHT22;8734;59.272;17.780;2023-02-18T13:58:19;5.00;99.90
17236;DHT22;8734;59.272;17.780;2023-02-18T14:00:52;5.10;99.90
17236;DHT22;8734;59.272;17.780;2023-02-18T14:03:35;5.10;99.90
17236;DHT22;8734;59.272;17.780;2023-02-18T14:06:17;5.10;99.90
17236;DHT22;8734;59.272;17.780;2023-02-18T14:08:46;5.10;99.90
17236;DHT22;8734;59.272;17.780;2023-02-18T14:11:33;5.10;99.90
17236;DHT22;8734;59.272;17.780;2023-02-18T14:14:30;5.10;99.90
17236;DHT22;8734;59.272;17.780;2023-02-18T14:17:34;5.10;99.90
17236;DHT22;8734;59.272;17.780;2023-02-18T14:23:55;5.10;99.90
17236;DHT22;8734;59.272;17.780;2023-02-18T14:26:31;5.10;99.90
17236;DHT22;8734;59.272;17.780;2023-02-18T14:29:04;5.10;99.90
17236;DHT22;8734;59.272;17.780;2023-02-18T14:31:39;5.10;99.90
17236;DHT22;8734;59.272;17.780;2023-02-18T14:37:11;5.00;99.90
17236;DHT22;8734;59.272;17.780;2023-02-18T14:39:53;5.10;99.90
17236;DHT22;8734;59.272;17.780;2023-02-18T14:42:29;5.00;99.90
17236;DHT22;8734;59.272;17.780;2023-02-18T14:45:11;5.00;99.90
17236;DHT22;8734;59.272;17.780;2023-02-18T14:48:01;5.00;99.90
17236;DHT22;8734;59.272;17.780;2023-02-18T14:50:36;5.00;99.90
17236;DHT22;8734;59.272;17.780;2023-02-18T14:53:07;5.00;99.90
17236;DHT22;8734;59.272;17.780;2023-02-18T14:55:44;5.00;99.90
17236;DHT22;8734;59.272;17.780;2023-02-18T14:58:24;5.00;99.90
17236;DHT22;8734;59.272;17.780;2023-02-18T15:00:52;5.00;99.90
17236;DHT22;8734;59.272;17.780;2023-02-18T15:03:21;5.00;99.90
17236;DHT22;8734;59.272;17.780;2023-02-18T15:05:50;5.00;99.90
17236;DHT22;8734;59.272;17.780;2023-02-18T15:08:21;5.00;99.90
17236;DHT22;8734;59.272;17.780;2023-02-18T15:10:52;5.00;99.90
17236;DHT22;8734;59.272;17.780;2023-02-18T15:13:27;5.00;99.90
17236;DHT22;8734;59.272;17.780;2023-02-18T15:15:58;5.00;99.90
17236;DHT22;8734;59.272;17.780;2023-02-18T15:18:32;4.90;99.90
17236;DHT22;8734;59.272;17.780;2023-02-18T15:21:03;4.90;99.90
17236;DHT22;8734;59.272;17.780;2023-02-18T15:23:35;4.90;99.90
17236;DHT22;8734;59.272;17.780;2023-02-18T15:26:10;4.80;99.90
17236;DHT22;8734;59.272;17.780;2023-02-18T15:28:43;4.80;99.90
17236;DHT22;8734;59.272;17.780;2023-02-18T15:31:24;4.70;99.90
17236;DHT22;8734;59.272;17.780;2023-02-18T15:33:54;4.70;99.90
17236;DHT22;8734;59.272;17.780;2023-02-18T15:36:24;4.70;99.90
17236;DHT22;8734;59.272;17.780;2023-02-18T15:38:55;4.60;99.90
17236;DHT22;8734;59.272;17.780;2023-02-18T15:41:25;4.50;99.90
17236;DHT22;8734;59.272;17.780;2023-02-18T15:44:00;4.50;99.90
17236;DHT22;8734;59.272;17.780;2023-02-18T15:46:31;4.50;99.90
17236;DHT22;8734;59.272;17.780;2023-02-18T15:49:00;4.50;99.90
17236;DHT22;8734;59.272;17.780;2023-02-18T15:51:30;4.40;99.90
17236;DHT22;8734;59.272;17.780;2023-02-18T15:54:01;4.40;99.90
17236;DHT22;8734;59.272;17.780;2023-02-18T15:56:33;4.30;99.90
17236;DHT22;8734;59.272;17.780;2023-02-18T15:59:15;4.30;99.90
17236;DHT22;8734;59.272;17.780;2023-02-18T16:01:49;4.20;99.90
17236;DHT22;8734;59.272;17.780;2023-02-18T16:04:19;4.10;99.90
17236;DHT22;8734;59.272;17.780;2023-02-18T16:06:49;4.10;99.90
17236;DHT22;8734;59.272;17.780;2023-02-18T16:09:21;4.00;99.90
17236;DHT22;8734;59.272;17.780;2023-02-18T16:11:54;3.90;99.90
17236;DHT22;8734;59.272;17.780;2023-02-18T16:14:31;4.00;99.90
17236;DHT22;8734;59.272;17.780;2023-02-18T16:17:06;4.00;99.90
17236;DHT22;8734;59.272;17.780;2023-02-18T16:19:44;3.90;99.90
17236;DHT22;8734;59.272;17.780;2023-02-18T16:22:33;3.90;99.90
17236;DHT22;8734;59.272;17.780;2023-02-18T16:25:09;3.90;99.90
17236;DHT22;8734;59.272;17.780;2023-02-18T16:27:50;3.90;99.90
17236;DHT22;8734;59.272;17.780;2023-02-18T16:30:21;4.00;99.90
17236;DHT22;8734;59.272;17.780;2023-02-18T16:32:50;4.00;99.90
17236;DHT22;8734;59.272;17.780;2023-02-18T16:35:21;3.90;99.90